Time;durP1;ratioP1;P1;durP2;ratioP2;P2;SDS_P1;SDS_P2;PMS_P1;PMS_P2;Temp;Humidity;BMP_temperature;BMP_pressure;BME280_temperature;BME280_humidity;BME280_pressure;Samples;Min_cycle;Max_cycle;Signal;HPM_P1;HPM_P2
2022/01/31 00:01:14;;;;;;;25.67;4.53;;;;;;;;;;5113613;28;20043;-77
2022/01/31 00:03:40;;;;;;;25.58;4.38;;;;;;;;;;5095514;28;20126;-79
2022/01/31 00:06:06;;;;;;;30.08;5.78;;;;;;;;;;5078790;28;20036;-78
2022/01/31 00:08:32;;;;;;;25.70;5.20;;;;;;;;;;5113610;28;20083;-78
2022/01/31 00:10:58;;;;;;;26.63;5.18;;;;;;;;;;5113607;28;20476;-78
2022/01/31 00:13:38;;;;;;;27.02;5.45;;;;;;;;;;5113789;28;20070;-78
2022/01/31 00:16:05;;;;;;;27.50;5.55;;;;;;;;;;5095196;28;20511;-79
2022/01/31 00:18:31;;;;;;;28.48;5.47;;;;;;;;;;5113340;28;20369;-79
2022/01/31 00:20:57;;;;;;;31.13;5.80;;;;;;;;;;5095540;28;20497;-78
2022/01/31 00:23:23;;;;;;;22.65;5.32;;;;;;;;;;5113421;28;20130;-78
2022/01/31 00:25:49;;;;;;;29.67;6.22;;;;;;;;;;5113172;28;20039;-78
2022/01/31 00:28:15;;;;;;;27.13;6.28;;;;;;;;;;5078368;28;20050;-79
2022/01/31 00:30:41;;;;;;;31.13;7.00;;;;;;;;;;5113507;28;20492;-79
2022/01/31 00:33:08;;;;;;;21.85;5.60;;;;;;;;;;5113196;28;20112;-78
2022/01/31 00:35:34;;;;;;;24.48;6.00;;;;;;;;;;5113192;28;20525;-77
2022/01/31 00:38:00;;;;;;;28.40;6.53;;;;;;;;;;5112919;28;20473;-77
2022/01/31 00:40:26;;;;;;;24.10;6.53;;;;;;;;;;5094835;28;20523;-77
2022/01/31 00:42:52;;;;;;;25.17;6.35;;;;;;;;;;5113103;28;20557;-78
2022/01/31 00:45:25;;;;;;;26.85;6.70;;;;;;;;;;5113133;28;20039;-78
2022/01/31 00:48:00;;;;;;;26.60;7.13;;;;;;;;;;5112984;28;20050;-77
2022/01/31 00:50:27;;;;;;;22.85;5.85;;;;;;;;;;5113047;28;20384;-79
2022/01/31 00:52:53;;;;;;;21.70;5.60;;;;;;;;;;5113102;28;20172;-78
2022/01/31 00:55:19;;;;;;;27.73;7.03;;;;;;;;;;5112999;28;20122;-78
2022/01/31 00:57:45;;;;;;;22.10;6.07;;;;;;;;;;5113026;28;20035;-78
2022/01/31 01:00:12;;;;;;;23.00;6.15;;;;;;;;;;5094872;28;20085;-78
2022/01/31 01:02:39;;;;;;;25.65;6.68;;;;;;;;;;5112900;28;20131;-78
2022/01/31 01:05:05;;;;;;;26.83;6.75;;;;;;;;;;5113681;28;20447;-78
2022/01/31 01:07:31;;;;;;;21.70;6.18;;;;;;;;;;5117046;28;20035;-77
2022/01/31 01:09:57;;;;;;;25.48;6.47;;;;;;;;;;5117236;28;20537;-78
2022/01/31 01:12:23;;;;;;;20.67;6.15;;;;;;;;;;5099013;28;20082;-78
2022/01/31 01:14:50;;;;;;;24.23;6.90;;;;;;;;;;5098995;28;20040;-78
2022/01/31 01:17:17;;;;;;;22.02;6.78;;;;;;;;;;5116876;28;20047;-77
2022/01/31 01:19:43;;;;;;;21.98;6.55;;;;;;;;;;5098168;28;20051;-79
2022/01/31 01:22:09;;;;;;;20.88;6.80;;;;;;;;;;5116596;28;20067;-77
2022/01/31 01:24:36;;;;;;;19.77;6.32;;;;;;;;;;5116849;28;20131;-78
2022/01/31 01:27:02;;;;;;;23.48;6.88;;;;;;;;;;5098871;28;20119;-78
2022/01/31 01:29:28;;;;;;;18.90;6.32;;;;;;;;;;5116641;28;20040;-78
2022/01/31 01:31:54;;;;;;;23.98;6.47;;;;;;;;;;5116719;28;20047;-78
2022/01/31 01:34:22;;;;;;;22.02;6.22;;;;;;;;;;5098373;28;20476;-77
2022/01/31 01:36:52;;;;;;;28.83;7.55;;;;;;;;;;5098533;28;20052;-78
2022/01/31 01:39:18;;;;;;;22.85;7.38;;;;;;;;;;5116318;28;20050;-77
2022/01/31 01:41:44;;;;;;;26.48;7.50;;;;;;;;;;5116435;28;20481;-77
2022/01/31 01:44:11;;;;;;;21.67;7.18;;;;;;;;;;5098423;28;20058;-77
2022/01/31 01:46:37;;;;;;;27.17;7.40;;;;;;;;;;5116231;28;20039;-77
2022/01/31 01:49:04;;;;;;;26.90;8.27;;;;;;;;;;5116226;28;20126;-79
2022/01/31 01:51:30;;;;;;;28.92;8.20;;;;;;;;;;5116434;28;20387;-77
2022/01/31 01:53:58;;;;;;;22.08;8.57;;;;;;;;;;5116425;28;20043;-78
2022/01/31 01:56:24;;;;;;;21.85;8.10;;;;;;;;;;5116195;28;20476;-78
2022/01/31 01:58:50;;;;;;;23.50;8.90;;;;;;;;;;5115966;28;20631;-78
2022/01/31 02:01:16;;;;;;;24.60;9.65;;;;;;;;;;5116024;28;20121;-80
2022/01/31 02:03:42;;;;;;;30.95;9.90;;;;;;;;;;5115756;28;20063;-78
2022/01/31 02:06:08;;;;;;;29.17;10.18;;;;;;;;;;5115904;28;20100;-77
2022/01/31 02:08:43;;;;;;;24.15;10.95;;;;;;;;;;5116193;28;20047;-80
2022/01/31 02:11:09;;;;;;;29.90;10.43;;;;;;;;;;5115951;28;20054;-79
2022/01/31 02:13:36;;;;;;;27.40;11.18;;;;;;;;;;5097494;28;20038;-77
2022/01/31 02:16:03;;;;;;;28.45;11.30;;;;;;;;;;5096889;28;20381;-78
2022/01/31 02:18:30;;;;;;;24.65;11.20;;;;;;;;;;5115625;28;20039;-78
2022/01/31 02:20:56;;;;;;;23.33;11.02;;;;;;;;;;5097738;28;20377;-77
2022/01/31 02:23:23;;;;;;;25.48;11.68;;;;;;;;;;5115463;28;20126;-79
2022/01/31 02:25:52;;;;;;;23.33;11.57;;;;;;;;;;5097533;28;20047;-78
2022/01/31 02:28:19;;;;;;;26.33;11.32;;;;;;;;;;5097125;28;20495;-79
2022/01/31 02:30:45;;;;;;;26.70;11.98;;;;;;;;;;5115460;28;20264;-79
2022/01/31 02:33:11;;;;;;;30.38;13.25;;;;;;;;;;5115342;28;20075;-78
2022/01/31 02:35:37;;;;;;;24.48;12.45;;;;;;;;;;5115410;28;20093;-80
2022/01/31 02:38:03;;;;;;;23.17;12.40;;;;;;;;;;5115263;28;20039;-80
2022/01/31 02:40:30;;;;;;;20.42;12.30;;;;;;;;;;5097137;28;20522;-79
2022/01/31 02:42:56;;;;;;;27.30;13.90;;;;;;;;;;5115166;28;20043;-78
2022/01/31 02:45:22;;;;;;;28.88;13.82;;;;;;;;;;5097114;28;20099;-79
2022/01/31 02:47:54;;;;;;;23.73;12.82;;;;;;;;;;5115407;28;20040;-80
2022/01/31 02:50:20;;;;;;;23.40;13.13;;;;;;;;;;5115247;28;20047;-78
2022/01/31 02:52:49;;;;;;;31.42;13.77;;;;;;;;;;5115408;28;20044;-79
2022/01/31 02:55:18;;;;;;;25.33;13.40;;;;;;;;;;5114957;28;20307;-79
2022/01/31 02:57:44;;;;;;;27.20;13.00;;;;;;;;;;5114810;28;20044;-79
2022/01/31 03:00:11;;;;;;;24.60;13.25;;;;;;;;;;5096900;28;20502;-79
2022/01/31 03:02:37;;;;;;;20.95;11.98;;;;;;;;;;5096597;28;20051;-79
2022/01/31 03:05:04;;;;;;;24.77;13.43;;;;;;;;;;5114933;28;20388;-80
2022/01/31 03:07:30;;;;;;;20.52;12.98;;;;;;;;;;5096735;28;20049;-80
2022/01/31 03:09:56;;;;;;;22.17;13.05;;;;;;;;;;5096929;28;20496;-79
2022/01/31 03:12:22;;;;;;;20.05;11.43;;;;;;;;;;5114512;28;20046;-79
2022/01/31 03:14:49;;;;;;;21.55;12.57;;;;;;;;;;5114914;28;20047;-80
2022/01/31 03:17:15;;;;;;;19.05;11.15;;;;;;;;;;5096277;28;20416;-79
2022/01/31 03:19:42;;;;;;;17.45;11.82;;;;;;;;;;5114397;28;20046;-78
2022/01/31 03:22:09;;;;;;;18.00;11.25;;;;;;;;;;5114524;28;20054;-79
2022/01/31 03:24:35;;;;;;;16.65;11.00;;;;;;;;;;5114392;28;20134;-79
2022/01/31 03:27:02;;;;;;;18.75;10.55;;;;;;;;;;5114142;28;20047;-79
2022/01/31 03:29:29;;;;;;;16.17;10.70;;;;;;;;;;5095557;28;20088;-80
2022/01/31 03:31:55;;;;;;;16.40;10.73;;;;;;;;;;5114381;28;20051;-80
2022/01/31 03:34:21;;;;;;;18.17;9.82;;;;;;;;;;5096086;28;20104;-79
2022/01/31 03:36:47;;;;;;;14.15;8.68;;;;;;;;;;5114264;28;20047;-79
2022/01/31 03:39:13;;;;;;;13.00;8.90;;;;;;;;;;5114068;28;20047;-78
2022/01/31 03:41:39;;;;;;;13.98;8.75;;;;;;;;;;5113984;28;20063;-78
2022/01/31 03:44:05;;;;;;;14.75;10.25;;;;;;;;;;5114139;28;20081;-79
2022/01/31 03:46:34;;;;;;;15.02;9.23;;;;;;;;;;5095556;28;20373;-80
2022/01/31 03:49:00;;;;;;;11.35;9.00;;;;;;;;;;5114064;28;20500;-78
2022/01/31 03:51:26;;;;;;;15.27;10.45;;;;;;;;;;5113857;28;20388;-78
2022/01/31 03:53:52;;;;;;;12.70;8.73;;;;;;;;;;5095516;28;20046;-79
2022/01/31 03:56:18;;;;;;;13.80;9.65;;;;;;;;;;5113772;28;20492;-79
2022/01/31 03:58:44;;;;;;;16.90;9.48;;;;;;;;;;5113672;28;20477;-78
2022/01/31 04:01:10;;;;;;;14.38;8.75;;;;;;;;;;5113746;28;20088;-78
2022/01/31 04:03:36;;;;;;;13.90;9.20;;;;;;;;;;5113600;28;20051;-79
2022/01/31 04:06:02;;;;;;;13.40;9.40;;;;;;;;;;5113423;28;20404;-79
2022/01/31 04:08:28;;;;;;;13.10;9.25;;;;;;;;;;5113410;28;20682;-79
2022/01/31 04:10:55;;;;;;;14.55;10.07;;;;;;;;;;5113377;28;20496;-79
2022/01/31 04:13:21;;;;;;;12.48;9.23;;;;;;;;;;5113543;28;20050;-78
2022/01/31 04:15:47;;;;;;;14.73;9.77;;;;;;;;;;5113597;28;20130;-79
2022/01/31 04:18:13;;;;;;;16.35;10.02;;;;;;;;;;5113513;28;20050;-79
2022/01/31 04:20:39;;;;;;;15.10;10.02;;;;;;;;;;5113362;28;20075;-79
2022/01/31 04:23:10;;;;;;;18.63;10.25;;;;;;;;;;5113361;28;20460;-80
2022/01/31 04:25:53;;;;;;;19.48;9.82;;;;;;;;;;5113520;28;20051;-79
2022/01/31 04:28:23;;;;;;;21.05;8.38;;;;;;;;;;5113472;28;20043;-79
2022/01/31 04:33:20;;;;;;;23.27;7.57;;;;;;;;;;5113296;28;20047;-79
2022/01/31 04:35:46;;;;;;;28.52;8.95;;;;;;;;;;5112890;28;20048;-79
2022/01/31 04:38:13;;;;;;;28.08;7.60;;;;;;;;;;5113285;28;20048;-79
2022/01/31 04:40:39;;;;;;;27.40;7.55;;;;;;;;;;5112963;28;20046;-80
2022/01/31 04:43:05;;;;;;;20.00;6.88;;;;;;;;;;5095357;28;20044;-80
2022/01/31 04:45:31;;;;;;;27.83;6.57;;;;;;;;;;5113071;28;20051;-79
2022/01/31 04:47:57;;;;;;;22.50;3.58;;;;;;;;;;5112981;28;20040;-80
2022/01/31 04:50:24;;;;;;;24.52;3.20;;;;;;;;;;5095025;28;20373;-78
2022/01/31 04:52:50;;;;;;;17.48;2.80;;;;;;;;;;5112884;28;20184;-79
2022/01/31 04:55:16;;;;;;;14.00;2.47;;;;;;;;;;5113115;28;20043;-79
2022/01/31 04:57:42;;;;;;;15.48;2.65;;;;;;;;;;5112922;28;20043;-80
2022/01/31 05:00:09;;;;;;;19.83;2.85;;;;;;;;;;5113071;28;20042;-78
2022/01/31 05:02:36;;;;;;;22.42;3.50;;;;;;;;;;5112794;28;20058;-78
2022/01/31 05:05:04;;;;;;;17.80;2.50;;;;;;;;;;5095019;28;20051;-80
2022/01/31 05:07:30;;;;;;;19.52;2.85;;;;;;;;;;5094685;28;20039;-80
2022/01/31 05:09:56;;;;;;;14.68;2.60;;;;;;;;;;5112865;28;20074;-79
2022/01/31 05:12:24;;;;;;;19.75;2.97;;;;;;;;;;5094911;28;20040;-80
2022/01/31 05:14:50;;;;;;;17.33;3.00;;;;;;;;;;5112745;28;20051;-80
2022/01/31 05:17:16;;;;;;;23.83;2.90;;;;;;;;;;5112680;28;20118;-79
2022/01/31 05:19:42;;;;;;;16.13;3.22;;;;;;;;;;5094746;28;20050;-79
2022/01/31 05:22:08;;;;;;;17.05;3.05;;;;;;;;;;5112766;28;20036;-80
2022/01/31 05:24:34;;;;;;;24.90;2.92;;;;;;;;;;5112851;28;20047;-79
2022/01/31 05:27:01;;;;;;;24.35;3.13;;;;;;;;;;5112826;28;20039;-79
2022/01/31 05:29:27;;;;;;;20.85;3.47;;;;;;;;;;5094636;28;20050;-80
2022/01/31 05:31:53;;;;;;;27.63;3.40;;;;;;;;;;5112485;28;20048;-80
2022/01/31 05:34:20;;;;;;;23.58;3.45;;;;;;;;;;5112402;28;20036;-80
2022/01/31 05:36:46;;;;;;;25.52;3.55;;;;;;;;;;5112594;28;20083;-79
2022/01/31 05:39:13;;;;;;;27.15;4.25;;;;;;;;;;5112502;28;20079;-79
2022/01/31 05:41:39;;;;;;;27.98;4.05;;;;;;;;;;5112493;28;20066;-77
2022/01/31 05:44:05;;;;;;;25.52;3.55;;;;;;;;;;5112487;28;20044;-79
2022/01/31 05:46:31;;;;;;;15.80;2.20;;;;;;;;;;5112324;28;20487;-79
2022/01/31 05:48:57;;;;;;;13.55;2.10;;;;;;;;;;5112694;28;20048;-80
2022/01/31 05:51:23;;;;;;;16.35;2.50;;;;;;;;;;5113714;28;20054;-78
2022/01/31 05:53:50;;;;;;;13.95;2.00;;;;;;;;;;5098069;28;20092;-79
2022/01/31 05:56:17;;;;;;;17.92;2.45;;;;;;;;;;5116208;28;20119;-79
2022/01/31 05:58:44;;;;;;;19.20;2.80;;;;;;;;;;5097637;28;20100;-79
2022/01/31 06:01:10;;;;;;;13.68;1.92;;;;;;;;;;5080938;28;20044;-79
2022/01/31 06:03:38;;;;;;;14.82;2.03;;;;;;;;;;5097772;28;20085;-79
2022/01/31 06:06:04;;;;;;;14.13;2.33;;;;;;;;;;5115978;28;20093;-79
2022/01/31 06:08:31;;;;;;;11.95;1.75;;;;;;;;;;5115909;28;20439;-79
2022/01/31 06:10:57;;;;;;;11.82;1.40;;;;;;;;;;5115882;28;20043;-79
2022/01/31 06:13:26;;;;;;;11.13;1.38;;;;;;;;;;5115742;28;20076;-77
2022/01/31 06:15:52;;;;;;;11.70;1.65;;;;;;;;;;5098036;28;20071;-79
2022/01/31 06:18:18;;;;;;;6.40;1.10;;;;;;;;;;5115629;28;20043;-78
2022/01/31 06:20:45;;;;;;;12.25;1.20;;;;;;;;;;5115842;28;20407;-79
2022/01/31 06:23:12;;;;;;;9.32;1.10;;;;;;;;;;5115497;28;20047;-79
2022/01/31 06:25:38;;;;;;;9.75;1.23;;;;;;;;;;5097463;28;20047;-79
2022/01/31 06:28:05;;;;;;;9.00;1.10;;;;;;;;;;5115483;28;20103;-79
2022/01/31 06:30:32;;;;;;;9.32;1.65;;;;;;;;;;5115653;28;20504;-78
2022/01/31 06:32:58;;;;;;;10.85;1.17;;;;;;;;;;5115563;28;20036;-78
2022/01/31 06:35:25;;;;;;;9.13;1.38;;;;;;;;;;5080621;28;20048;-78
2022/01/31 06:37:51;;;;;;;8.10;1.10;;;;;;;;;;5115306;28;20047;-78
2022/01/31 06:40:18;;;;;;;13.10;1.15;;;;;;;;;;5115337;28;20275;-80
2022/01/31 06:42:44;;;;;;;9.23;1.30;;;;;;;;;;5097098;28;20079;-78
2022/01/31 06:45:10;;;;;;;11.68;1.42;;;;;;;;;;5115192;28;20035;-78
2022/01/31 06:47:36;;;;;;;12.68;1.20;;;;;;;;;;5115363;28;20040;-78
2022/01/31 06:50:04;;;;;;;7.82;1.15;;;;;;;;;;5115285;28;20381;-78
2022/01/31 06:52:34;;;;;;;12.38;1.33;;;;;;;;;;5114870;28;20039;-78
2022/01/31 06:55:03;;;;;;;13.93;1.63;;;;;;;;;;5115029;28;20040;-78
2022/01/31 06:57:33;;;;;;;9.35;1.40;;;;;;;;;;5096878;28;20057;-80
2022/01/31 07:00:04;;;;;;;8.75;1.42;;;;;;;;;;5115141;28;20043;-79
2022/01/31 07:02:30;;;;;;;9.93;1.38;;;;;;;;;;5096430;28;20083;-78
2022/01/31 07:04:57;;;;;;;13.07;1.90;;;;;;;;;;5114944;28;20126;-78
2022/01/31 07:07:23;;;;;;;9.40;1.38;;;;;;;;;;5114924;28;20452;-77
2022/01/31 07:09:49;;;;;;;12.20;1.60;;;;;;;;;;5114599;28;20083;-78
2022/01/31 07:12:17;;;;;;;12.88;1.60;;;;;;;;;;5115017;28;20134;-79
2022/01/31 07:14:43;;;;;;;12.25;1.90;;;;;;;;;;5096623;28;20048;-79
2022/01/31 07:17:09;;;;;;;13.63;1.98;;;;;;;;;;5114733;28;20104;-79
2022/01/31 07:19:38;;;;;;;14.80;1.52;;;;;;;;;;5079279;28;20476;-78
2022/01/31 07:22:08;;;;;;;13.23;1.80;;;;;;;;;;5123657;27;20039;-78
2022/01/31 07:27:00;;;;;;;12.10;1.40;;;;;;;;;;5132562;27;20403;-78
2022/01/31 07:29:27;;;;;;;14.50;1.60;;;;;;;;;;5134969;27;20431;-79
2022/01/31 07:31:53;;;;;;;14.45;1.90;;;;;;;;;;5133587;27;20039;-80
2022/01/31 07:34:20;;;;;;;12.40;1.70;;;;;;;;;;5132807;27;20043;-79
2022/01/31 07:36:46;;;;;;;17.55;2.15;;;;;;;;;;5133611;27;20039;-79
2022/01/31 07:39:13;;;;;;;12.90;1.77;;;;;;;;;;5114884;27;20043;-81
2022/01/31 07:41:39;;;;;;;14.38;2.03;;;;;;;;;;5113108;27;20035;-80
2022/01/31 07:44:05;;;;;;;24.48;2.08;;;;;;;;;;5098560;27;20047;-80
2022/01/31 07:46:31;;;;;;;19.00;2.10;;;;;;;;;;5130602;27;20042;-80
2022/01/31 07:48:58;;;;;;;17.90;1.98;;;;;;;;;;5111366;27;20498;-78
2022/01/31 07:51:24;;;;;;;17.15;2.22;;;;;;;;;;5085654;28;20050;-79
2022/01/31 07:53:50;;;;;;;13.77;1.83;;;;;;;;;;5106838;27;20035;-80
2022/01/31 07:56:17;;;;;;;13.93;1.77;;;;;;;;;;5098511;27;20545;-79
2022/01/31 07:58:45;;;;;;;10.98;1.63;;;;;;;;;;5129814;27;20100;-79
2022/01/31 08:01:11;;;;;;;11.98;1.70;;;;;;;;;;5078739;28;20047;-79
2022/01/31 08:03:37;;;;;;;15.15;1.70;;;;;;;;;;5122234;27;20421;-78
2022/01/31 08:06:03;;;;;;;11.02;1.48;;;;;;;;;;5133947;27;20090;-80
2022/01/31 08:08:31;;;;;;;17.95;1.92;;;;;;;;;;5134003;27;20078;-78
2022/01/31 08:10:57;;;;;;;19.02;1.98;;;;;;;;;;5132608;27;20471;-79
2022/01/31 08:13:25;;;;;;;15.13;1.85;;;;;;;;;;5103337;28;20082;-79
2022/01/31 08:18:27;;;;;;;11.18;1.60;;;;;;;;;;5133798;27;20130;-79
2022/01/31 08:20:53;;;;;;;13.68;1.55;;;;;;;;;;5115744;27;20035;-79
2022/01/31 08:23:19;;;;;;;18.33;2.00;;;;;;;;;;5133813;27;20126;-78
2022/01/31 08:25:50;;;;;;;16.20;1.67;;;;;;;;;;5115914;27;20464;-78
2022/01/31 08:28:17;;;;;;;13.10;1.70;;;;;;;;;;5115928;27;20042;-79
2022/01/31 08:33:24;;;;;;;22.15;2.63;;;;;;;;;;5115432;27;20051;-80
2022/01/31 08:35:51;;;;;;;11.93;1.92;;;;;;;;;;5115741;27;20039;-80
2022/01/31 08:38:20;;;;;;;15.60;2.00;;;;;;;;;;5115568;27;20172;-80
2022/01/31 08:40:46;;;;;;;14.65;2.10;;;;;;;;;;5115595;28;20031;-79
2022/01/31 08:43:14;;;;;;;11.40;1.80;;;;;;;;;;5133523;27;20078;-80
2022/01/31 08:45:40;;;;;;;14.52;1.80;;;;;;;;;;5133524;27;20065;-79
2022/01/31 08:48:06;;;;;;;12.45;1.85;;;;;;;;;;5115291;27;20053;-79
2022/01/31 08:50:34;;;;;;;17.25;1.92;;;;;;;;;;5133707;28;20049;-80
2022/01/31 08:53:00;;;;;;;12.23;1.77;;;;;;;;;;5133415;27;20102;-78
2022/01/31 08:55:26;;;;;;;15.20;2.28;;;;;;;;;;5133809;27;20130;-80
2022/01/31 08:57:55;;;;;;;12.98;1.95;;;;;;;;;;5133436;28;20039;-80
2022/01/31 09:00:32;;;;;;;14.40;1.70;;;;;;;;;;5133243;28;20449;-80
2022/01/31 09:05:50;;;;;;;12.07;1.90;;;;;;;;;;5116615;28;20086;-79
2022/01/31 09:08:16;;;;;;;14.45;2.08;;;;;;;;;;5133213;28;20091;-80
2022/01/31 09:10:44;;;;;;;10.65;1.90;;;;;;;;;;5133096;28;20470;-79
2022/01/31 09:13:12;;;;;;;15.43;1.60;;;;;;;;;;5115390;28;20374;-79
2022/01/31 09:15:38;;;;;;;7.75;1.15;;;;;;;;;;5115270;28;20088;-75
2022/01/31 09:18:04;;;;;;;9.10;1.45;;;;;;;;;;5114903;28;20058;-79
2022/01/31 09:20:30;;;;;;;11.05;1.58;;;;;;;;;;5133333;28;20040;-79
2022/01/31 09:22:56;;;;;;;11.40;1.80;;;;;;;;;;5132955;28;20043;-79
2022/01/31 09:25:26;;;;;;;14.48;2.58;;;;;;;;;;5133108;27;20365;-79
2022/01/31 09:27:52;;;;;;;11.95;2.03;;;;;;;;;;5137015;27;20051;-79
2022/01/31 09:30:21;;;;;;;11.18;1.52;;;;;;;;;;5137338;27;20039;-79
2022/01/31 09:32:47;;;;;;;12.65;1.55;;;;;;;;;;5137318;27;20054;-80
2022/01/31 09:35:13;;;;;;;9.57;1.63;;;;;;;;;;5137174;27;20042;-80
2022/01/31 09:37:39;;;;;;;12.98;1.40;;;;;;;;;;5137161;27;20098;-80
2022/01/31 09:40:06;;;;;;;12.75;1.92;;;;;;;;;;5118596;27;20127;-78
2022/01/31 09:42:41;;;;;;;14.38;1.90;;;;;;;;;;5137203;27;20039;-79
2022/01/31 09:45:14;;;;;;;14.13;2.20;;;;;;;;;;5136987;27;20099;-78
2022/01/31 09:50:27;;;;;;;15.18;2.75;;;;;;;;;;5137095;27;20066;-80
2022/01/31 09:52:54;;;;;;;14.27;1.70;;;;;;;;;;5136816;27;20043;-78
2022/01/31 09:55:22;;;;;;;14.25;2.22;;;;;;;;;;5101721;27;20035;-80
2022/01/31 09:57:48;;;;;;;15.10;1.90;;;;;;;;;;5136752;27;20480;-78
2022/01/31 10:00:14;;;;;;;12.18;1.70;;;;;;;;;;5117906;27;20533;-79
2022/01/31 10:02:41;;;;;;;14.73;1.98;;;;;;;;;;5117835;27;20125;-80
2022/01/31 10:05:07;;;;;;;14.60;2.00;;;;;;;;;;5136811;27;20053;-79
2022/01/31 10:07:46;;;;;;;13.30;2.28;;;;;;;;;;5118355;27;20544;-79
2022/01/31 10:10:21;;;;;;;15.57;1.88;;;;;;;;;;5136534;27;20050;-77
2022/01/31 10:18:08;;;;;;;11.27;2.00;;;;;;;;;;5136510;27;20047;-80
2022/01/31 10:20:35;;;;;;;13.32;1.48;;;;;;;;;;5136178;27;20495;-79
2022/01/31 10:23:07;;;;;;;14.13;1.70;;;;;;;;;;5136175;27;20395;-79
2022/01/31 10:25:34;;;;;;;12.30;1.90;;;;;;;;;;5117903;27;20045;-79
2022/01/31 10:28:00;;;;;;;13.07;1.77;;;;;;;;;;5118091;27;20047;-79
2022/01/31 10:30:27;;;;;;;14.82;1.50;;;;;;;;;;5136305;27;20433;-78
2022/01/31 10:32:54;;;;;;;10.73;1.38;;;;;;;;;;5117870;27;20043;-78
2022/01/31 10:35:25;;;;;;;10.00;1.83;;;;;;;;;;5136115;27;20035;-79
2022/01/31 10:37:56;;;;;;;12.83;1.40;;;;;;;;;;5135531;27;20043;-80
2022/01/31 10:46:33;;;;;;;11.00;1.70;;;;;;;;;;5115336;27;20043;-78
2022/01/31 10:52:01;;;;;;;10.90;1.40;;;;;;;;;;5135552;27;20155;-78
2022/01/31 10:54:38;;;;;;;10.98;1.17;;;;;;;;;;5117148;27;20047;-79
2022/01/31 10:57:15;;;;;;;9.63;1.23;;;;;;;;;;5117442;27;20164;-79
2022/01/31 10:59:43;;;;;;;11.98;1.38;;;;;;;;;;5117205;27;20039;-79
2022/01/31 11:02:15;;;;;;;10.02;1.45;;;;;;;;;;5135222;27;20309;-79
2022/01/31 11:04:42;;;;;;;15.55;1.60;;;;;;;;;;5135360;27;20075;-79
2022/01/31 11:07:10;;;;;;;8.88;1.35;;;;;;;;;;5117051;27;20035;-79
2022/01/31 11:09:37;;;;;;;15.10;1.52;;;;;;;;;;5135212;27;20039;-79
2022/01/31 11:12:04;;;;;;;12.48;1.70;;;;;;;;;;5135356;27;20496;-79
2022/01/31 11:14:30;;;;;;;16.20;1.88;;;;;;;;;;5135594;27;20129;-79
2022/01/31 11:16:56;;;;;;;12.65;1.90;;;;;;;;;;5117209;27;20525;-80
2022/01/31 11:19:33;;;;;;;10.30;1.42;;;;;;;;;;5135229;27;20126;-80
2022/01/31 11:22:07;;;;;;;12.27;1.77;;;;;;;;;;5134790;27;20046;-79
2022/01/31 11:24:37;;;;;;;14.73;1.77;;;;;;;;;;5135231;27;20134;-80
2022/01/31 11:27:04;;;;;;;14.00;1.85;;;;;;;;;;5134995;27;20125;-78
2022/01/31 11:29:36;;;;;;;13.43;1.95;;;;;;;;;;5116668;27;20314;-79
2022/01/31 11:32:02;;;;;;;16.48;2.10;;;;;;;;;;5134786;27;20039;-78
2022/01/31 11:34:28;;;;;;;12.88;1.65;;;;;;;;;;5103692;28;20051;-79
2022/01/31 11:36:54;;;;;;;12.25;1.92;;;;;;;;;;5096197;28;20059;-80
2022/01/31 11:39:20;;;;;;;12.23;1.65;;;;;;;;;;5122366;27;20046;-79
2022/01/31 11:41:51;;;;;;;14.30;1.58;;;;;;;;;;5134562;27;20074;-78
2022/01/31 11:44:20;;;;;;;14.43;2.08;;;;;;;;;;5132527;27;20043;-79
2022/01/31 11:46:46;;;;;;;19.52;2.28;;;;;;;;;;5134295;27;20035;-79
2022/01/31 11:49:14;;;;;;;18.25;2.05;;;;;;;;;;5122487;27;20035;-80
2022/01/31 11:51:58;;;;;;;14.68;1.88;;;;;;;;;;5122166;27;20035;-79
2022/01/31 11:54:24;;;;;;;17.35;2.30;;;;;;;;;;5134446;27;20043;-79
2022/01/31 11:56:53;;;;;;;13.05;2.45;;;;;;;;;;5098690;27;20519;-79
2022/01/31 11:59:20;;;;;;;14.45;2.55;;;;;;;;;;5115716;27;20364;-80
2022/01/31 12:01:46;;;;;;;18.63;2.20;;;;;;;;;;5098983;27;20042;-79
2022/01/31 12:04:13;;;;;;;11.38;1.50;;;;;;;;;;5133873;27;20568;-81
2022/01/31 12:06:39;;;;;;;14.65;2.13;;;;;;;;;;5134084;27;20173;-79
2022/01/31 12:09:06;;;;;;;15.13;2.13;;;;;;;;;;5134125;27;20043;-78
2022/01/31 12:11:52;;;;;;;10.73;1.80;;;;;;;;;;5115985;27;20078;-80
2022/01/31 12:14:24;;;;;;;15.10;1.98;;;;;;;;;;5134004;27;20437;-78
2022/01/31 12:17:19;;;;;;;12.88;1.90;;;;;;;;;;5134083;27;20460;-79
2022/01/31 12:20:00;;;;;;;14.70;1.88;;;;;;;;;;5133658;27;20050;-79
2022/01/31 12:22:41;;;;;;;14.82;2.03;;;;;;;;;;5133734;27;20129;-80
2022/01/31 12:25:23;;;;;;;12.30;1.90;;;;;;;;;;5134085;27;20082;-80
2022/01/31 12:27:49;;;;;;;;;;;;;;;;;;5134312;27;20079;-78
2022/01/31 12:30:29;;;;;;;14.35;2.10;;;;;;;;;;5133889;27;20010;-79
2022/01/31 12:32:55;;;;;;;15.07;2.10;;;;;;;;;;5133499;27;20426;-80
2022/01/31 12:35:31;;;;;;;16.70;1.73;;;;;;;;;;5133697;27;20184;-77
2022/01/31 12:37:57;;;;;;;13.93;2.90;;;;;;;;;;5133854;27;20375;-80
2022/01/31 12:40:30;;;;;;;16.40;2.33;;;;;;;;;;5133579;27;20551;-79
2022/01/31 12:45:27;;;;;;;14.93;2.38;;;;;;;;;;5133638;27;20091;-79
2022/01/31 12:48:12;;;;;;;21.58;2.95;;;;;;;;;;5133741;27;20046;-79
2022/01/31 12:50:41;;;;;;;16.83;2.53;;;;;;;;;;5133587;27;20099;-79
2022/01/31 12:53:23;;;;;;;17.25;2.65;;;;;;;;;;5133468;27;20043;-79
2022/01/31 12:55:59;;;;;;;18.50;2.50;;;;;;;;;;5115406;28;20064;-78
2022/01/31 12:58:32;;;;;;;16.02;2.50;;;;;;;;;;5115385;28;20047;-79
2022/01/31 13:01:07;;;;;;;14.82;2.60;;;;;;;;;;5102647;27;20085;-79
2022/01/31 13:03:34;;;;;;;18.60;2.65;;;;;;;;;;5140092;27;20051;-78
2022/01/31 13:06:00;;;;;;;18.33;2.80;;;;;;;;;;5140205;27;20043;-80
2022/01/31 13:08:26;;;;;;;17.23;2.72;;;;;;;;;;5122056;27;20051;-80
2022/01/31 13:10:54;;;;;;;19.65;2.80;;;;;;;;;;5140339;27;20046;-79
2022/01/31 13:13:34;;;;;;;16.75;2.60;;;;;;;;;;5140147;27;20507;-78
2022/01/31 13:16:04;;;;;;;15.95;2.40;;;;;;;;;;5121881;27;20500;-80
2022/01/31 13:18:32;;;;;;;16.33;2.80;;;;;;;;;;5139950;27;20395;-79
2022/01/31 13:20:58;;;;;;;22.90;3.03;;;;;;;;;;5104699;27;20051;-79
2022/01/31 13:23:26;;;;;;;17.38;2.58;;;;;;;;;;5140314;27;20131;-80
2022/01/31 13:25:59;;;;;;;15.48;2.42;;;;;;;;;;5140094;27;20039;-78
2022/01/31 13:28:25;;;;;;;20.88;3.05;;;;;;;;;;5140134;27;20035;-78
2022/01/31 13:30:51;;;;;;;20.05;2.97;;;;;;;;;;5140168;27;20442;-76
2022/01/31 13:33:18;;;;;;;18.58;2.67;;;;;;;;;;5139782;27;20357;-76
2022/01/31 13:35:46;;;;;;;15.68;2.03;;;;;;;;;;5140164;27;20043;-75
2022/01/31 13:38:20;;;;;;;15.68;3.05;;;;;;;;;;5140008;27;20091;-75
2022/01/31 13:40:49;;;;;;;18.90;2.45;;;;;;;;;;5122011;27;20136;-72
2022/01/31 13:43:22;;;;;;;18.67;2.60;;;;;;;;;;5139990;27;20060;-78
2022/01/31 13:45:58;;;;;;;16.98;2.72;;;;;;;;;;5121388;27;20053;-79
2022/01/31 13:51:14;;;;;;;19.80;2.60;;;;;;;;;;5139884;27;20440;-78
2022/01/31 13:53:41;;;;;;;21.42;3.10;;;;;;;;;;5121553;27;20047;-79
2022/01/31 13:56:12;;;;;;;17.08;2.42;;;;;;;;;;5139646;27;20543;-79
2022/01/31 13:58:41;;;;;;;17.42;2.80;;;;;;;;;;5139705;27;20126;-80
2022/01/31 14:01:18;;;;;;;15.07;2.25;;;;;;;;;;5139923;27;20126;-80
2022/01/31 14:03:44;;;;;;;12.90;1.90;;;;;;;;;;5121354;27;20133;-78
2022/01/31 14:06:11;;;;;;;14.10;2.08;;;;;;;;;;5139659;27;20197;-79
2022/01/31 14:08:42;;;;;;;19.60;2.42;;;;;;;;;;5139561;27;20046;-79
2022/01/31 14:11:15;;;;;;;14.93;2.50;;;;;;;;;;5121350;27;20055;-79
2022/01/31 14:13:45;;;;;;;18.98;2.55;;;;;;;;;;5135817;27;20053;-80
2022/01/31 14:16:13;;;;;;;17.17;2.40;;;;;;;;;;5136292;27;20117;-79
2022/01/31 14:18:39;;;;;;;18.52;2.42;;;;;;;;;;5118233;27;20039;-80
2022/01/31 14:21:07;;;;;;;20.48;2.80;;;;;;;;;;5136234;27;20047;-80
2022/01/31 14:23:37;;;;;;;21.20;2.80;;;;;;;;;;5136524;27;20046;-80
2022/01/31 14:26:03;;;;;;;15.88;2.47;;;;;;;;;;5136174;27;20043;-80
2022/01/31 14:28:34;;;;;;;23.48;2.90;;;;;;;;;;5118133;27;20035;-80
2022/01/31 14:31:00;;;;;;;19.58;3.03;;;;;;;;;;5136214;27;20054;-79
2022/01/31 14:33:26;;;;;;;18.10;2.63;;;;;;;;;;5136104;27;20457;-80
2022/01/31 14:36:06;;;;;;;23.60;3.22;;;;;;;;;;5136006;27;20097;-79
2022/01/31 14:38:51;;;;;;;20.52;2.95;;;;;;;;;;5136019;27;20047;-79
2022/01/31 14:41:33;;;;;;;15.85;2.72;;;;;;;;;;5135970;27;20057;-79
2022/01/31 14:49:36;;;;;;;14.00;1.92;;;;;;;;;;5117341;27;20055;-79
2022/01/31 14:52:04;;;;;;;18.83;2.78;;;;;;;;;;5135666;27;20043;-79
2022/01/31 14:54:30;;;;;;;22.08;2.75;;;;;;;;;;5135553;27;20050;-79
2022/01/31 14:56:56;;;;;;;19.92;3.03;;;;;;;;;;5135472;27;20039;-81
2022/01/31 14:59:23;;;;;;;14.77;1.92;;;;;;;;;;5117282;27;20050;-79
2022/01/31 15:01:49;;;;;;;14.57;2.20;;;;;;;;;;5135426;27;20039;-79
2022/01/31 15:04:19;;;;;;;10.05;1.92;;;;;;;;;;5134975;27;20054;-80
2022/01/31 15:06:45;;;;;;;18.08;3.85;;;;;;;;;;5135211;27;20047;-78
2022/01/31 15:09:11;;;;;;;16.48;2.97;;;;;;;;;;5135436;27;20047;-79
2022/01/31 15:11:37;;;;;;;18.00;3.70;;;;;;;;;;5117260;27;20085;-79
2022/01/31 15:14:04;;;;;;;12.63;2.65;;;;;;;;;;5135225;27;20051;-79